Airfield :
LOGIN :

Register | Disclaimer

   EN    FR    IT 

 










Legend :    VFR   Marginal VFR   IFR   Intensive IFR   Very Intensive IFR
Visi :
Ceiling :
>= 8 km
>= 3000ft
5 to 8 km
1000 to 3000 ft
1500m to 5 km
500 to 1000 ft
800 to 1500m
200 to 500 ft
< 800m
< 200 ft
Symbols :   Thunderstorms  Fog  Heavy snow  Heavy precipitations  Wind > 20 kt
SIGMETs :     Misc.  Thunderstorms  Icing  Turbulence  Mountain Waves  Volcanic Ashes







- Airport Elevation : 1260 ft
- IATA code : LDE
- Download approach charts


LFBT - Tarbes / Ossun

CURRENT METAR :
  • 231930Z AUTO 04006KT 010V070 9999 SCT041/// BKN054/// BKN210/// ///CB 08/02 Q1011 TEMPO SHRA BECMG NSC

EXPIRED METARs :
  • 231900Z AUTO 04006KT 360V080 9999 VCTS BKN042/// BKN049/// BKN066/// ///CB 07/02 Q1010 TEMPO SHRA
  • 231830Z AUTO 35008KT 9999 TS BKN042/// BKN054/// BKN076/// ///CB 07/02 Q1010 TEMPO SHRA
  • 231800Z AUTO VRB03KT 9999 -RA BKN044/// BKN056/// BKN076/// ///TCU 08/02 Q1010 TEMPO SHRA
  • 231730Z AUTO 04007KT 010V070 9999 -RA FEW054/// SCT084/// BKN100/// ///CB 10/01 Q1009 TEMPO SHRA
  • 231700Z AUTO 04007KT 360V060 9999 FEW064 10/00 Q1009 TEMPO BKN035TCU

TAF TAF LFBT
Valid from the 23 at 18:00 until the 24 at 18:00 UTC


231700Z 2318/2418 08008KT 9999 BKN050
PROB30
TEMPO 2318/2321 SHRA BKN030TCU
BECMG 2321/2323 CAVOK
PROB30
TEMPO 2403/2406 VRB02KT 4000 BR NSC
BECMG 2415/2417 09012KT 8000 RA SCT015 BKN020 BKN100
No reported NOTAMs for that airfield.



MET'MAP, your aeronautical weather chart ! - Copyright ORBIFLY December 2007 - Disclaimer

ORBIFLY MET'MAP TEAM :

Programming & Development : Alexandra Zaïnal
Concept & Development : Baudouin d'Aumeries
Co-Development & Prog : Marc-Olivier Méhu
Technical & hardware support : Manuel Goepfert

Contact : metmap@orbifly.com




SOURCES & CREDITS :

   NOAA